Detalii statie VESTAGRAR MARGHITA [00001D0E]

Toti senzorii

Date Temperatura solului [C]Precipitatii [mm]Voltaj baterie [mV]Leaf Wetness [Min]HC Air temperature [C]HC Relative humidity [%]Punctul de roua [C]
medieminmaxsumaultimatimpmedieminmaxmediemediemin
2018-06-20 10:00:00 0 7294 29.16 28.37 30.03 31.78 0
2018-06-20 11:00:00 0 7294 30.9 29.46 31.57 7.74 0
2018-06-20 12:00:00 0 7294 32.25 31.05 32.78 1.03 0
2018-06-20 13:00:00 0 7294 33.53 32.26 34.86 1.44 0
2018-06-20 14:00:00 0 7294 33.88 32.78 35.24 0 0 0
2018-06-20 15:00:00 0 7138 32.21 30 34.09 8.33 0
2018-06-20 16:00:00 0 7060 29.6 29.25 30.04 50.77 0
2018-06-20 17:00:00 0 7274 29.58 28.97 30.01 39.8 0
2018-06-20 18:00:00 0 7108 29.89 29.69 30.19 0 0 0
2018-06-20 19:00:00 0 7070 29.06 27.95 29.79 16.66 4.6 0
2018-06-20 20:00:00 0 6942 26.2 24.96 27.8 0.72 0
2018-06-20 21:00:00 0 6914 23.21 22.1 24.53 8.33 0
2018-06-20 22:00:00 0 6932 20.92 20.37 22.01 0 0 0
2018-06-20 23:00:00 0 6922 19.42 18.96 20.1 0 0 0
2018-06-21 00:00:00 0 6914 18.48 18.11 18.92 0 0 0
2018-06-21 01:00:00 0 6894 17.89 17.61 18.09 0 0 0
2018-06-21 02:00:00 0 6894 17.58 17.1 17.91 0 0 0
2018-06-21 03:00:00 0 6894 17.08 16.71 17.49 0 0 0
2018-06-21 04:00:00 0 6874 16.9 16.61 17.19 0 0 0
2018-06-21 05:00:00 0 6874 16.51 16.06 17 0 0 0
2018-06-21 06:00:00 0 6922 16.96 16.37 18.16 0 0 0
2018-06-21 07:00:00 0 6982 20.26 18.47 22.57 0 0 0
2018-06-21 08:00:00 0 7070 24.64 22.69 26.75 0 0 0
2018-06-21 09:00:00 0 7196 26.86 26.15 27.58 41.66 0
2018-06-21 10:00:00 0 7294 30.25 28.65 31.83 0 0 0
2018-06-21 11:00:00 0 7294 31.65 30.41 32.7 6.29 0
2018-06-21 12:00:00 0 7284 31.63 29.97 33.42 56.8 0
2018-06-21 13:00:00 0 7294 31.9 30.42 33.92 0 0 0
2018-06-21 14:00:00 0 7196 31.27 29.87 33.08 0 0 0
2018-06-21 15:00:00 0 7206 28.76 28.32 29.89 25 0
2018-06-21 16:00:00 0 7284 29.29 28.75 30.23 0 0 0
2018-06-21 17:00:00 0 7284 28.64 27.6 29.19 0 0 0
2018-06-21 18:00:00 0 7284 26.73 26.24 27.42 0 0 0
2018-06-21 19:00:00 0 7284 26 25.25 26.46 0 0 0
2018-06-21 20:00:00 0 6922 24.63 24.16 25.02 16.39 4 0
2018-06-21 21:00:00 0 6952 22.67 21.63 23.85 33.33 7.6 0
2018-06-21 22:00:00 0 6942 21.1 20.78 21.48 0 0 0
2018-06-21 23:00:00 0 6942 20.61 20.04 21.12 0 0 0
2018-06-22 00:00:00 0 6922 19.67 18.78 20.69 0 0 0
2018-06-22 01:00:00 0 6914 18.81 18.34 19.19 0 0 0
2018-06-22 02:00:00 0 6904 18.84 18.38 19.21 0 0 0
2018-06-22 03:00:00 0 6904 19.07 18.77 19.45 0 0 0
2018-06-22 04:00:00 0 6894 19.15 19.01 19.38 0 0 0
2018-06-22 05:00:00 0 6894 19.43 18.89 20.02 0 0 0
2018-06-22 06:00:00 0 6894 19.94 17.74 21.83 0 0 0
2018-06-22 07:00:00 0.6 6894 16.92 15.93 17.79 0 0 0
2018-06-22 08:00:00 0 6992 16.44 15.83 16.81 0 0 0
2018-06-22 09:00:00 2.4 6952 16.66 15.96 16.94 0 0 0